KCAO/CAO METAR and TAF weather

Enter ICAO airport designator
Station Type Date Time Source
KCAO METAR 2019/02/23 22:55 UTC NOAA

KCAO 232255Z AUTO 31010KT 10SM CLR 03/M12 A2995 RMK AO2 SLP146 T00331117


Station Type Date Time Source
KCAO Decoded METAR 2019/02/23 22:55 UTC NOAA

CLAYTON MUNICIPAL AIRPARK, NM, United States (KCAO) 36-27N 103-09W 1514M
Feb 23, 2019 - 05:55 PM EST / 2019.02.23 2255 UTC
Wind: from the NW (310 degrees) at 12 MPH (10 KT):0
Visibility: 10 mile(s):0
Sky conditions: clear
Temperature: 37.9 F (3.3 C)
Dew Point: 10.9 F (-11.7 C)
Relative Humidity: 32%
Pressure (altimeter): 29.95 in. Hg (1014 hPa)
ob: KCAO 232255Z AUTO 31010KT 10SM CLR 03/M12 A2995 RMK AO2 SLP146 T00331117
cycle: 23

Station Type Date Time Source
KCAO TAF UTC NOAA

Error!


Example: see airport list